• Join FlightAware (Why Join?)
  • Login
  • US Flag 
05:22PM EDT


 

Airport Tracker/Info


-or-


 

Live Flight TrackerFlight Track Log ✈ N516QS ✈ 19-Aug-2013 ✈ KMMU - KOQU

Flight Track Log - Related Links

Times and Time Zones

All times are in EDT time to prevent confusion due to time zone crossing. See the N516QS flight status page for this flight to view local times or setup timezone preferences in your user account.

Time Position Orientation Groundspeed Altitude Reporting Facility
EDT Latitude Longitude Course Direction KTS MPH feet Rate Location/Type
01:27PM 40.7333 -74.4167 105° East 222 255 3,200  Level New York TRACON
01:28PM 40.7167 -74.3333 105° East 277 319 5,200 1,380 Climbing New York TRACON
01:29PM 40.7667 -74.2667 45° Northeast 291 335 6,000 360 Climbing New York TRACON
01:30PM 40.8500 -74.2333 17° North 274 315 6,000  Level New York TRACON
01:31PM 40.9167 -74.2167 11° North 270 311 6,000  Level New York TRACON
01:32PM 40.9833 -74.1833 21° North 267 307 6,000  Level New York TRACON
01:33PM 41.0500 -74.1500 21° North 269 310 6,000 540 Level New York TRACON
01:34PM 41.1000 -74.0667 51° Northeast 293 337 7,100 1,320 Climbing New York TRACON
01:35PM 41.1333 -73.9667 66° East 297 342 8,700 900 Climbing New York TRACON
01:36PM 41.1667 -73.8667 66° East 306 352 9,000 120 Climbing New York TRACON
01:37PM 41.2167 -73.7667 56° Northeast 306 352 9,000  Level New York TRACON
01:38PM 41.2500 -73.6667 66° East 297 342 9,000  Level New York TRACON
01:39PM 41.2833 -73.5833 62° Northeast 298 343 9,000  Level New York TRACON
01:40PM 41.3167 -73.4833 66° East 299 344 9,000  Level New York TRACON
01:41PM 41.3500 -73.3833 66° East 301 346 9,000  Level New York TRACON
01:41PM 41.3800 -73.2978 65° Northeast 296 341 9,000  Level Boston Center
01:42PM 41.4014 -73.2372 65° Northeast 296 341 9,000  Level Boston Center
01:43PM 41.4353 -73.1378 66° East 297 342 9,000  Level Boston Center
01:44PM 41.4714 -73.0386 64° Northeast 297 342 9,000  Level Boston Center
01:45PM 41.4969 -72.9250 73° East 305 351 9,000  Level Boston Center
01:46PM 41.5161 -72.8172 77° East 304 350 9,000  Level Boston Center
01:47PM 41.5311 -72.7036 80° East 302 348 9,000  Level Boston Center
01:48PM 41.5500 -72.5953 77° East 302 348 9,000  Level Boston Center
01:49PM 41.5667 -72.4872 78° East 301 346 9,000  Level Boston Center
01:50PM 41.5833 -72.3736 79° East 300 345 9,000  Level Boston Center
01:51PM 41.5939 -72.3069 78° East 300 345 9,000  Level Boston Center
01:51PM 41.6019 -72.2486 80° East 301 346 9,000  Level Boston Center
01:52PM 41.6186 -72.1431 78° East 299 344 9,000 -720 Level Boston Center
01:53PM 41.6328 -72.0344 80° East 295 339 7,600 -1,500 Descending Boston Center
01:54PM 41.6489 -71.9372 77° East 288 331 6,200 -1,560 Descending Boston Center
01:55PM 41.6464 -71.8372 92° East 282 325 4,700 -1,500 Descending Boston Center
01:56PM 41.6083 -71.7378 117° Southeast 277 319 3,200 -840 Descending Boston Center
01:57PM 41.5808 -71.6575 115° Southeast 235 270 3,000 -420 Descending Boston Center
01:58PM 41.5553 -71.5800 114° Southeast 225 259 2,400 -540 Descending Boston Center
01:59PM 41.5381 -71.5111 108° East 196 226 2,000 -420 Descending Boston Center
02:00PM 41.5353 -71.4389 93° East 172 198 1,600 -600 Descending Boston Center
02:01PM 41.5619 -71.3886 55° Northeast 153 176 700  Descending Boston Center
02:46PM 41.6669 -71.4925 321° Northwest 240 276 3,800 120 Climbing Boston Center
02:47PM 41.7197 -71.5556 318° Northwest 267 307 7,900 2,880 Climbing Boston Center
02:48PM 41.7828 -71.6328 318° Northwest 273 314 10,000 1,740 Climbing Boston Center
02:49PM 41.8481 -71.7294 312° West 312 359 11,500 2,340 Climbing Boston Center
02:50PM 41.8883 -71.8572 293° West 363 418 14,700 2,940 Climbing Boston Center
02:51PM 41.9306 -71.9908 293° West 387 445 17,300 2,700 Climbing Boston Center
02:52PM 41.9747 -72.1331 293° West 404 465 20,200 2,700 Climbing Boston Center
02:53PM 42.0208 -72.2753 294° West 415 478 22,900 2,700 Climbing Boston Center
02:54PM 42.0669 -72.4178 294° West 415 478 25,700 2,400 Climbing Boston Center
02:55PM 42.1128 -72.5633 293° West 415 478 27,700 1,920 Climbing Boston Center
02:56PM 42.1333 -72.7172 280° West 415 478 29,500 2,220 Climbing Boston Center
02:57PM 42.0808 -72.8542 243° Southwest 390 449 32,200 2,460 Climbing Boston Center
02:58PM 42.0158 -72.9683 233° Southwest 389 448 34,500 2,160 Climbing Boston Center
02:59PM 41.9525 -73.0736 231° Southwest 395 455 36,600 1,920 Climbing Boston Center
03:00PM 41.8647 -73.1508 213° Southwest 389 448 38,400 1,560 Climbing Boston Center
03:01PM 41.7703 -73.2278 211° Southwest 383 441 39,700 1,200 Climbing Boston Center
03:02PM 41.6822 -73.2989 211° Southwest 389 448 40,800 900 Climbing Boston Center
03:03PM 41.6044 -73.3950 223° Southwest 389 448 41,600 720 Climbing Boston Center
03:04PM 41.5367 -73.5022 230° Southwest 379 436 42,300 660 Climbing Boston Center